createdAt,value
2018-11-04T00:00:04.164Z,0.00
2018-11-04T00:01:04.023Z,0.00
2018-11-04T00:02:04.051Z,0.00
2018-11-04T00:03:04.074Z,0.00
2018-11-04T00:04:04.099Z,0.00
2018-11-04T00:05:04.128Z,0.00
2018-11-04T00:06:04.152Z,0.00
2018-11-04T00:07:04.177Z,0.00
2018-11-04T00:08:04.202Z,0.00
2018-11-04T00:09:04.232Z,0.00
2018-11-04T00:10:04.253Z,0.00
2018-11-04T00:11:04.280Z,0.00
2018-11-04T00:12:04.305Z,0.00
2018-11-04T00:13:04.351Z,0.00
2018-11-04T00:14:04.356Z,0.00
2018-11-04T00:15:04.384Z,0.00
2018-11-04T00:16:04.410Z,0.00
2018-11-04T00:17:04.433Z,0.00
2018-11-04T00:18:04.459Z,0.00
2018-11-04T00:19:04.541Z,0.00
2018-11-04T00:20:04.510Z,0.00
2018-11-04T00:21:04.535Z,0.00
2018-11-04T00:22:04.559Z,0.00
2018-11-04T00:23:04.585Z,0.00
2018-11-04T00:24:04.743Z,0.00
2018-11-04T00:25:04.636Z,0.00
2018-11-04T00:26:04.663Z,0.00
2018-11-04T00:27:04.695Z,0.00
2018-11-04T00:28:04.711Z,0.00
2018-11-04T00:29:04.736Z,0.00
2018-11-04T00:30:04.764Z,0.00
2018-11-04T00:31:04.786Z,0.00
2018-11-04T00:32:04.811Z,0.00
2018-11-04T00:33:04.839Z,0.00
2018-11-04T00:34:04.862Z,0.00
2018-11-04T00:35:04.887Z,0.00
2018-11-04T00:36:04.916Z,0.00
2018-11-04T00:37:04.942Z,0.00
2018-11-04T00:38:04.963Z,0.00
2018-11-04T00:39:04.988Z,0.00
2018-11-04T00:40:05.013Z,0.00
2018-11-04T00:41:05.042Z,0.00
2018-11-04T00:42:05.064Z,0.00
2018-11-04T00:43:05.088Z,0.00
2018-11-04T00:44:05.113Z,0.00
2018-11-04T00:45:05.194Z,0.00
2018-11-04T00:46:05.163Z,0.00
2018-11-04T00:47:05.188Z,0.00
2018-11-04T00:48:05.213Z,0.00
2018-11-04T00:49:05.240Z,0.00
2018-11-04T00:50:05.264Z,0.00
2018-11-04T00:51:05.294Z,0.00
2018-11-04T00:52:05.316Z,0.00
2018-11-04T00:53:05.339Z,0.00
2018-11-04T00:54:05.367Z,0.00
2018-11-04T00:55:05.390Z,0.00
2018-11-04T00:56:05.416Z,0.00
2018-11-04T00:57:05.441Z,0.00
2018-11-04T00:58:05.465Z,0.00
2018-11-04T00:59:05.491Z,0.00
2018-11-04T01:00:05.515Z,0.00
2018-11-04T01:01:05.540Z,0.00
2018-11-04T01:02:05.564Z,0.00
2018-11-04T01:03:05.588Z,0.00
2018-11-04T01:04:05.615Z,0.00
2018-11-04T01:05:05.642Z,0.00
2018-11-04T01:06:05.666Z,0.00
2018-11-04T01:07:05.689Z,0.00
2018-11-04T01:08:05.714Z,0.00
2018-11-04T01:09:05.790Z,0.00
2018-11-04T01:10:05.767Z,0.00
2018-11-04T01:11:05.791Z,0.00
2018-11-04T01:12:05.815Z,0.00
2018-11-04T01:13:05.841Z,0.00
2018-11-04T01:14:05.867Z,0.00
2018-11-04T01:15:05.890Z,0.00
2018-11-04T01:16:05.916Z,0.00
2018-11-04T01:17:05.946Z,0.00
2018-11-04T01:18:05.971Z,0.00
2018-11-04T01:19:05.993Z,0.00
2018-11-04T01:20:06.019Z,0.00
2018-11-04T01:21:06.048Z,0.00
2018-11-04T01:22:06.070Z,0.00
2018-11-04T01:23:06.094Z,0.00
2018-11-04T01:24:06.120Z,0.00
2018-11-04T01:25:06.151Z,0.00
2018-11-04T01:26:06.172Z,0.00
2018-11-04T01:27:06.201Z,0.00
2018-11-04T01:28:06.222Z,0.00
2018-11-04T01:29:06.291Z,0.00
2018-11-04T01:30:06.285Z,0.00
2018-11-04T01:31:06.301Z,0.00
2018-11-04T01:32:06.325Z,0.00
2018-11-04T01:33:06.351Z,0.00
2018-11-04T01:34:06.378Z,0.00
2018-11-04T01:35:06.403Z,0.00
2018-11-04T01:36:06.430Z,0.00
2018-11-04T01:37:06.459Z,0.00
2018-11-04T01:38:06.482Z,0.00
2018-11-04T01:39:06.506Z,0.00
2018-11-04T01:40:06.535Z,0.00
2018-11-04T01:41:06.560Z,0.00
2018-11-04T01:42:06.585Z,0.00
2018-11-04T01:43:06.610Z,0.00
2018-11-04T01:44:06.637Z,0.00
2018-11-04T01:45:06.668Z,0.00
2018-11-04T01:46:06.691Z,0.00
2018-11-04T01:47:06.719Z,0.00
2018-11-04T01:48:06.742Z,0.00
2018-11-04T01:49:06.768Z,0.00
2018-11-04T01:50:06.797Z,0.00
2018-11-04T01:51:06.824Z,0.00
2018-11-04T01:52:06.846Z,0.00
2018-11-04T01:53:06.873Z,0.00
2018-11-04T01:54:06.900Z,0.00
2018-11-04T01:55:06.929Z,0.00
2018-11-04T01:56:06.953Z,0.00
2018-11-04T01:57:06.980Z,0.00
2018-11-04T01:58:07.006Z,0.00
2018-11-04T01:59:07.031Z,0.00
2018-11-04T02:00:07.065Z,0.00
2018-11-04T02:01:07.085Z,0.00
2018-11-04T02:02:07.118Z,0.00
2018-11-04T02:03:07.137Z,0.00
2018-11-04T02:04:07.165Z,0.00
2018-11-04T02:05:07.199Z,0.00
2018-11-04T02:06:07.219Z,0.00
2018-11-04T02:07:07.243Z,0.00
2018-11-04T02:08:07.270Z,0.00
2018-11-04T02:09:07.301Z,0.00
2018-11-04T02:10:07.326Z,0.00
2018-11-04T02:11:07.357Z,0.00
2018-11-04T02:12:07.380Z,0.00
2018-11-04T02:13:07.406Z,0.00
2018-11-04T02:14:07.431Z,0.00
2018-11-04T02:15:07.459Z,0.00
2018-11-04T02:16:07.492Z,0.00
2018-11-04T02:17:07.510Z,0.00
2018-11-04T02:18:07.541Z,0.00
2018-11-04T02:19:07.564Z,0.00
2018-11-04T02:20:07.592Z,0.00
2018-11-04T02:21:07.621Z,0.00
2018-11-04T02:22:07.647Z,0.00
2018-11-04T02:23:07.670Z,0.00
2018-11-04T02:24:07.698Z,0.00
2018-11-04T02:25:07.729Z,0.00
2018-11-04T02:26:07.752Z,0.00
2018-11-04T02:27:07.779Z,0.00
2018-11-04T02:28:07.805Z,0.00
2018-11-04T02:29:07.832Z,0.00
2018-11-04T02:30:07.861Z,0.00
2018-11-04T02:31:07.888Z,0.00
2018-11-04T02:32:07.915Z,0.00
2018-11-04T02:33:07.965Z,0.00
2018-11-04T02:34:07.972Z,0.00
2018-11-04T02:35:08.010Z,0.00
2018-11-04T02:36:08.023Z,0.00
2018-11-04T02:37:08.050Z,0.00
2018-11-04T02:38:08.077Z,0.00
2018-11-04T02:39:08.105Z,0.00
2018-11-04T02:40:08.130Z,0.00
2018-11-04T02:41:08.157Z,0.00
2018-11-04T02:42:08.186Z,0.00
2018-11-04T02:43:08.211Z,0.00
2018-11-04T02:44:08.241Z,0.00
2018-11-04T02:45:08.266Z,0.00
2018-11-04T02:46:08.296Z,0.00
2018-11-04T02:47:08.423Z,0.00
2018-11-04T02:48:08.347Z,0.00
2018-11-04T02:49:08.377Z,0.00
2018-11-04T02:50:08.405Z,0.00
2018-11-04T02:51:08.436Z,0.00
2018-11-04T02:52:08.459Z,0.00
2018-11-04T02:53:08.491Z,0.00
2018-11-04T02:54:08.518Z,0.00
2018-11-04T02:55:08.539Z,0.00
2018-11-04T02:56:08.567Z,0.00
2018-11-04T02:57:08.594Z,0.00
2018-11-04T02:58:08.624Z,0.00
2018-11-04T02:59:08.647Z,0.00
2018-11-04T03:00:08.676Z,0.00
2018-11-04T03:01:08.705Z,0.00
2018-11-04T03:02:08.767Z,0.00
2018-11-04T03:03:08.760Z,0.00
2018-11-04T03:04:08.784Z,0.00
2018-11-04T03:05:08.822Z,0.00
2018-11-04T03:06:08.847Z,0.00
2018-11-04T03:07:08.869Z,0.00
2018-11-04T03:08:08.892Z,0.00
2018-11-04T03:09:08.930Z,0.00
2018-11-04T03:10:08.951Z,0.00
2018-11-04T03:11:08.977Z,0.00
2018-11-04T03:12:09.004Z,0.00
2018-11-04T03:13:09.032Z,0.00
2018-11-04T03:14:09.061Z,0.00
2018-11-04T03:15:09.089Z,0.00
2018-11-04T03:16:09.116Z,0.00
2018-11-04T03:17:09.147Z,0.00
2018-11-04T03:18:09.174Z,0.00
2018-11-04T03:19:09.196Z,0.00
2018-11-04T03:20:09.221Z,0.00
2018-11-04T03:21:09.249Z,0.00
2018-11-04T03:22:09.276Z,0.00
2018-11-04T03:23:09.302Z,0.00
2018-11-04T03:24:09.333Z,0.00
2018-11-04T03:25:09.360Z,0.00
2018-11-04T03:26:09.394Z,0.00
2018-11-04T03:27:09.415Z,0.00
2018-11-04T03:28:09.440Z,0.00
2018-11-04T03:29:09.470Z,0.00
2018-11-04T03:30:09.494Z,0.00
2018-11-04T03:31:09.521Z,0.00
2018-11-04T03:32:09.549Z,0.00
2018-11-04T03:33:09.576Z,0.00
2018-11-04T03:34:09.601Z,0.00
2018-11-04T03:35:09.631Z,0.00
2018-11-04T03:36:09.663Z,0.00
2018-11-04T03:37:09.684Z,0.00
2018-11-04T03:38:09.719Z,0.00
2018-11-04T03:39:09.738Z,0.00
2018-11-04T03:40:09.766Z,0.00
2018-11-04T03:41:09.795Z,0.00
2018-11-04T03:42:09.820Z,0.00
2018-11-04T03:43:09.849Z,0.00
2018-11-04T03:44:09.872Z,0.00
2018-11-04T03:45:09.901Z,0.00
2018-11-04T03:46:09.928Z,0.00
2018-11-04T03:47:09.953Z,0.00
2018-11-04T03:48:09.980Z,0.00
2018-11-04T03:49:10.008Z,0.00
2018-11-04T03:50:10.038Z,0.00
2018-11-04T03:51:10.063Z,0.00
2018-11-04T03:52:10.090Z,0.00
2018-11-04T03:53:10.119Z,0.00
2018-11-04T03:54:10.147Z,0.00
2018-11-04T03:55:10.172Z,0.00
2018-11-04T03:56:10.197Z,0.00
2018-11-04T03:57:10.228Z,0.00
2018-11-04T03:58:10.251Z,0.00
2018-11-04T03:59:10.282Z,0.00
2018-11-04T04:00:10.306Z,0.00
2018-11-04T04:01:10.329Z,0.00
2018-11-04T04:02:10.363Z,0.00
2018-11-04T04:03:10.382Z,0.00
2018-11-04T04:04:10.414Z,0.00
2018-11-04T04:05:10.438Z,0.00
2018-11-04T04:06:10.461Z,0.00
2018-11-04T04:07:10.492Z,0.00
2018-11-04T04:08:10.517Z,0.00
2018-11-04T04:09:10.542Z,0.00
2018-11-04T04:10:10.574Z,0.00
2018-11-04T04:11:10.597Z,0.00
2018-11-04T04:12:10.625Z,0.00
2018-11-04T04:13:10.646Z,0.00
2018-11-04T04:14:10.676Z,0.00
2018-11-04T04:15:10.701Z,0.00
2018-11-04T04:16:10.726Z,0.00
2018-11-04T04:17:10.751Z,0.00
2018-11-04T04:18:10.780Z,0.00
2018-11-04T04:19:10.801Z,0.00
2018-11-04T04:20:10.828Z,0.00
2018-11-04T04:21:10.857Z,0.00
2018-11-04T04:22:10.881Z,0.00
2018-11-04T04:23:10.912Z,0.00
2018-11-04T04:24:10.933Z,0.00
2018-11-04T04:25:10.960Z,0.00
2018-11-04T04:26:10.984Z,0.00
2018-11-04T04:27:11.008Z,0.00
2018-11-04T04:28:11.033Z,0.00
2018-11-04T04:29:11.059Z,0.00
2018-11-04T04:30:11.088Z,0.00
2018-11-04T04:31:11.110Z,0.00
2018-11-04T04:32:11.135Z,0.00
2018-11-04T04:33:11.161Z,0.00
2018-11-04T04:34:11.188Z,0.00
2018-11-04T04:35:11.214Z,0.00
2018-11-04T04:36:11.238Z,0.00
2018-11-04T04:37:11.264Z,0.00
2018-11-04T04:38:11.288Z,0.00
2018-11-04T04:39:11.317Z,0.00
2018-11-04T04:40:11.344Z,0.00
2018-11-04T04:41:11.364Z,0.00
2018-11-04T04:42:11.391Z,0.00
2018-11-04T04:43:11.418Z,0.00
2018-11-04T04:44:11.443Z,0.00
2018-11-04T04:45:11.464Z,0.00
2018-11-04T04:46:11.490Z,0.00
2018-11-04T04:47:11.519Z,0.00
2018-11-04T04:48:11.542Z,0.00
2018-11-04T04:49:11.564Z,0.00
2018-11-04T04:50:11.590Z,0.00
2018-11-04T04:51:11.614Z,0.00
2018-11-04T04:52:11.639Z,0.00
2018-11-04T04:53:11.664Z,0.00
2018-11-04T04:54:11.692Z,0.00
2018-11-04T04:55:11.717Z,0.00
2018-11-04T04:56:11.742Z,0.00
2018-11-04T04:57:11.765Z,0.00
2018-11-04T04:58:11.790Z,4.00
2018-11-04T04:59:11.816Z,4.00
2018-11-04T05:00:11.841Z,0.00
2018-11-04T05:01:11.867Z,0.00
2018-11-04T05:02:11.889Z,4.00
2018-11-04T05:03:11.916Z,4.00
2018-11-04T05:04:11.939Z,0.00
2018-11-04T05:05:11.963Z,4.00
2018-11-04T05:06:11.989Z,4.00
2018-11-04T05:07:12.015Z,4.00
2018-11-04T05:08:12.039Z,4.00
2018-11-04T05:09:12.061Z,4.00
2018-11-04T05:10:12.090Z,4.00
2018-11-04T05:11:12.114Z,8.00
2018-11-04T05:12:12.135Z,8.00
2018-11-04T05:13:12.224Z,8.00
2018-11-04T05:14:12.194Z,16.00
2018-11-04T05:15:12.209Z,12.00
2018-11-04T05:16:12.237Z,16.00
2018-11-04T05:17:12.261Z,20.00
2018-11-04T05:18:12.287Z,24.00
2018-11-04T05:19:12.314Z,28.00
2018-11-04T05:20:12.338Z,32.00
2018-11-04T05:21:12.358Z,36.00
2018-11-04T05:22:12.383Z,44.00
2018-11-04T05:23:12.405Z,48.00
2018-11-04T05:24:12.433Z,56.00
2018-11-04T05:25:12.456Z,64.00
2018-11-04T05:26:12.480Z,72.00
2018-11-04T05:27:12.508Z,84.00
2018-11-04T05:28:12.546Z,92.00
2018-11-04T05:29:12.553Z,104.00
2018-11-04T05:30:12.579Z,120.00
2018-11-04T05:31:12.602Z,136.00
2018-11-04T05:32:12.625Z,156.00
2018-11-04T05:33:12.650Z,172.00
2018-11-04T05:34:12.681Z,192.00
2018-11-04T05:35:12.700Z,208.00
2018-11-04T05:36:12.724Z,232.00
2018-11-04T05:37:12.748Z,252.00
2018-11-04T05:38:12.779Z,272.00
2018-11-04T05:39:12.796Z,296.00
2018-11-04T05:40:12.820Z,316.00
2018-11-04T05:41:12.848Z,340.00
2018-11-04T05:42:12.870Z,368.00
2018-11-04T05:43:12.894Z,396.00
2018-11-04T05:44:12.919Z,424.00
2018-11-04T05:45:12.943Z,448.00
2018-11-04T05:46:12.968Z,480.00
2018-11-04T05:47:12.992Z,508.00
2018-11-04T05:48:13.015Z,540.00
2018-11-04T05:49:13.040Z,572.00
2018-11-04T05:50:13.074Z,608.00
2018-11-04T05:51:13.090Z,644.00
2018-11-04T05:52:13.114Z,684.00
2018-11-04T05:53:13.138Z,720.00
2018-11-04T05:54:13.164Z,760.00
2018-11-04T05:55:13.189Z,804.00
2018-11-04T05:56:13.211Z,840.00
2018-11-04T05:57:13.238Z,884.00
2018-11-04T05:58:13.264Z,924.00
2018-11-04T05:59:13.285Z,968.00
2018-11-04T06:00:13.309Z,1008.00
2018-11-04T06:01:13.333Z,1048.00
2018-11-04T06:02:13.357Z,1096.00
2018-11-04T06:03:13.387Z,1144.00
2018-11-04T06:04:13.406Z,1188.00
2018-11-04T06:05:13.431Z,1236.00
2018-11-04T06:06:13.456Z,1292.00
2018-11-04T06:07:13.483Z,1352.00
2018-11-04T06:08:13.509Z,1424.00
2018-11-04T06:09:13.529Z,1504.00
2018-11-04T06:10:13.556Z,1528.00
2018-11-04T06:11:13.581Z,1552.00
2018-11-04T06:12:13.603Z,1596.00
2018-11-04T06:13:13.632Z,1644.00
2018-11-04T06:14:13.652Z,1688.00
2018-11-04T06:15:13.681Z,1728.00
2018-11-04T06:16:13.700Z,1776.00
2018-11-04T06:17:13.727Z,1840.00
2018-11-04T06:18:13.750Z,1920.00
2018-11-04T06:19:13.825Z,2004.00
2018-11-04T06:20:13.800Z,2208.00
2018-11-04T06:21:13.822Z,2508.00
2018-11-04T06:22:13.849Z,2836.00
2018-11-04T06:23:13.873Z,2892.00
2018-11-04T06:24:13.900Z,2732.00
2018-11-04T06:25:13.923Z,2940.00
2018-11-04T06:26:13.955Z,3184.00
2018-11-04T06:27:13.972Z,3044.00
2018-11-04T06:28:13.998Z,2788.00
2018-11-04T06:29:14.026Z,2676.00
2018-11-04T06:30:14.050Z,2700.00
2018-11-04T06:31:14.073Z,2816.00
2018-11-04T06:32:14.099Z,2884.00
2018-11-04T06:33:14.125Z,2956.00
2018-11-04T06:34:14.150Z,3080.00
2018-11-04T06:35:14.175Z,3388.00
2018-11-04T06:36:14.203Z,3496.00
2018-11-04T06:37:14.226Z,3240.00
2018-11-04T06:38:14.254Z,3236.00
2018-11-04T06:39:14.279Z,3252.00
2018-11-04T06:40:14.304Z,3292.00
2018-11-04T06:41:14.470Z,3328.00
2018-11-04T06:42:14.357Z,3356.00
2018-11-04T06:43:14.380Z,3400.00
2018-11-04T06:44:14.408Z,3524.00
2018-11-04T06:45:14.433Z,3604.00
2018-11-04T06:46:14.460Z,3764.00
2018-11-04T06:47:14.670Z,3988.00
2018-11-04T06:48:14.509Z,4244.00
2018-11-04T06:49:14.535Z,4244.00
2018-11-04T06:50:14.589Z,3912.00
2018-11-04T06:51:14.590Z,4040.00
2018-11-04T06:52:14.614Z,4764.00
2018-11-04T06:53:14.639Z,5184.00
2018-11-04T06:54:14.682Z,5004.00
2018-11-04T06:55:14.691Z,4888.00
2018-11-04T06:56:14.719Z,5108.00
2018-11-04T06:57:14.745Z,5156.00
2018-11-04T06:58:14.771Z,5596.00
2018-11-04T06:59:14.802Z,6048.00
2018-11-04T07:00:14.835Z,6472.00
2018-11-04T07:01:14.852Z,6864.00
2018-11-04T07:02:14.880Z,7304.00
2018-11-04T07:03:14.902Z,7868.00
2018-11-04T07:04:14.932Z,8244.00
2018-11-04T07:05:14.959Z,8284.00
2018-11-04T07:06:14.988Z,8468.00
2018-11-04T07:07:15.012Z,8656.00
2018-11-04T07:08:15.039Z,9428.00
2018-11-04T07:09:15.066Z,10308.00
2018-11-04T07:10:15.097Z,10712.00
2018-11-04T07:11:15.124Z,10800.00
2018-11-04T07:12:15.151Z,10760.00
2018-11-04T07:13:15.178Z,10900.00
2018-11-04T07:14:15.212Z,10880.00
2018-11-04T07:15:15.235Z,10748.00
2018-11-04T07:16:15.265Z,10288.00
2018-11-04T07:17:15.293Z,9948.00
2018-11-04T07:18:15.323Z,10144.00
2018-11-04T07:19:15.356Z,10872.00
2018-11-04T07:20:15.384Z,12048.00
2018-11-04T07:21:15.411Z,12736.00
2018-11-04T07:22:15.441Z,12740.00
2018-11-04T07:23:15.470Z,12640.00
2018-11-04T07:24:15.505Z,12588.00
2018-11-04T07:25:15.538Z,12432.00
2018-11-04T07:26:15.565Z,12340.00
2018-11-04T07:27:15.592Z,12224.00
2018-11-04T07:28:15.624Z,12272.00
2018-11-04T07:29:15.658Z,12540.00
2018-11-04T07:30:15.687Z,12620.00
2018-11-04T07:31:15.716Z,12556.00
2018-11-04T07:32:15.909Z,12428.00
2018-11-04T07:33:15.782Z,12244.00
2018-11-04T07:34:15.817Z,12284.00
2018-11-04T07:35:15.844Z,12396.00
2018-11-04T07:36:15.877Z,12608.00
2018-11-04T07:37:15.912Z,12544.00
2018-11-04T07:38:15.945Z,12672.00
2018-11-04T07:39:15.980Z,13568.00
2018-11-04T07:40:16.006Z,18720.00
2018-11-04T07:41:16.039Z,22368.00
2018-11-04T07:42:16.074Z,21696.00
2018-11-04T07:43:16.103Z,20000.00
2018-11-04T07:44:16.189Z,18400.00
2018-11-04T07:45:16.174Z,18368.00
2018-11-04T07:46:16.207Z,17792.00
2018-11-04T07:47:16.239Z,18624.00
2018-11-04T07:48:16.272Z,18816.00
2018-11-04T07:49:16.304Z,17952.00
2018-11-04T07:50:16.341Z,18336.00
2018-11-04T07:51:16.379Z,18272.00
2018-11-04T07:52:16.406Z,18112.00
2018-11-04T07:53:16.438Z,18144.00
2018-11-04T07:54:16.475Z,17856.00
2018-11-04T07:55:16.513Z,17472.00
2018-11-04T07:56:16.543Z,16896.00
2018-11-04T07:57:16.577Z,16864.00
2018-11-04T07:58:16.610Z,17568.00
2018-11-04T07:59:16.644Z,18496.00
2018-11-04T08:00:16.680Z,18464.00
2018-11-04T08:01:16.720Z,18272.00
2018-11-04T08:02:16.749Z,18752.00
2018-11-04T08:03:16.785Z,18752.00
2018-11-04T08:04:16.884Z,18112.00
2018-11-04T08:05:16.853Z,18464.00
2018-11-04T08:06:16.896Z,19648.00
2018-11-04T08:07:16.923Z,19136.00
2018-11-04T08:08:16.963Z,19136.00
2018-11-04T08:09:16.996Z,19616.00
2018-11-04T08:10:17.030Z,20096.00
2018-11-04T08:11:17.064Z,20640.00
2018-11-04T08:12:17.106Z,19840.00
2018-11-04T08:13:17.139Z,19936.00
2018-11-04T08:14:17.173Z,20768.00
2018-11-04T08:15:17.207Z,20896.00
2018-11-04T08:16:17.243Z,20960.00
2018-11-04T08:17:17.280Z,21728.00
2018-11-04T08:18:17.315Z,21696.00
2018-11-04T08:19:17.350Z,21856.00
2018-11-04T08:20:17.387Z,22240.00
2018-11-04T08:21:17.447Z,22720.00
2018-11-04T08:22:17.459Z,22592.00
2018-11-04T08:23:17.497Z,22560.00
2018-11-04T08:24:17.532Z,22912.00
2018-11-04T08:25:17.567Z,23072.00
2018-11-04T08:26:17.606Z,23168.00
2018-11-04T08:27:17.640Z,23072.00
2018-11-04T08:28:17.680Z,22880.00
2018-11-04T08:29:17.715Z,23872.00
2018-11-04T08:30:17.751Z,24160.00
2018-11-04T08:31:17.791Z,24320.00
2018-11-04T08:32:17.823Z,24224.00
2018-11-04T08:33:17.860Z,23936.00
2018-11-04T08:34:17.898Z,21920.00
2018-11-04T08:35:17.935Z,23904.00
2018-11-04T08:36:17.976Z,25920.00
2018-11-04T08:37:18.009Z,26336.00
2018-11-04T08:38:18.049Z,26624.00
2018-11-04T08:39:18.083Z,25952.00
2018-11-04T08:40:18.233Z,26400.00
2018-11-04T08:41:18.159Z,26496.00
2018-11-04T08:42:18.196Z,26656.00
2018-11-04T08:43:18.235Z,27136.00
2018-11-04T08:44:18.271Z,27648.00
2018-11-04T08:45:18.308Z,27168.00
2018-11-04T08:46:18.350Z,28000.00
2018-11-04T08:47:18.384Z,28512.00
2018-11-04T08:48:18.422Z,27712.00
2018-11-04T08:49:18.460Z,28224.00
2018-11-04T08:50:18.498Z,28064.00
2018-11-04T08:51:18.536Z,26944.00
2018-11-04T08:52:18.608Z,28192.00
2018-11-04T08:53:18.614Z,28896.00
2018-11-04T08:54:18.652Z,28544.00
2018-11-04T08:55:18.687Z,28224.00
2018-11-04T08:56:18.726Z,28128.00
2018-11-04T08:57:18.767Z,29696.00
2018-11-04T08:58:18.802Z,30880.00
2018-11-04T08:59:18.845Z,29728.00
2018-11-04T09:00:18.878Z,30528.00
2018-11-04T09:01:18.918Z,30464.00
2018-11-04T09:02:18.958Z,28864.00
2018-11-04T09:03:18.993Z,30240.00
2018-11-04T09:04:19.033Z,32480.00
2018-11-04T09:05:19.069Z,31424.00
2018-11-04T09:06:19.143Z,31200.00
2018-11-04T09:07:19.147Z,30528.00
2018-11-04T09:08:19.188Z,30304.00
2018-11-04T09:09:19.224Z,29344.00
2018-11-04T09:10:19.265Z,30112.00
2018-11-04T09:11:19.304Z,30336.00
2018-11-04T09:12:19.340Z,30656.00
2018-11-04T09:13:19.378Z,30080.00
2018-11-04T09:14:19.503Z,30016.00
2018-11-04T09:15:19.456Z,31040.00
2018-11-04T09:16:19.496Z,31968.00
2018-11-04T09:17:19.533Z,31488.00
2018-11-04T09:18:19.572Z,31712.00
2018-11-04T09:19:19.610Z,32000.00
2018-11-04T09:20:19.651Z,30304.00
2018-11-04T09:21:19.687Z,31200.00
2018-11-04T09:22:19.856Z,31776.00
2018-11-04T09:23:19.764Z,31264.00
2018-11-04T09:24:19.806Z,32096.00
2018-11-04T09:25:19.845Z,32288.00
2018-11-04T09:26:19.883Z,31200.00
2018-11-04T09:27:19.921Z,31424.00
2018-11-04T09:28:19.959Z,32672.00
2018-11-04T09:29:20.056Z,31968.00
2018-11-04T09:30:20.036Z,31648.00
2018-11-04T09:31:20.075Z,31808.00
2018-11-04T09:32:20.113Z,31200.00
2018-11-04T09:33:20.158Z,30976.00
2018-11-04T09:34:20.192Z,30752.00
2018-11-04T09:35:20.380Z,31616.00
2018-11-04T09:36:20.533Z,32256.00
2018-11-04T09:37:20.310Z,31712.00
2018-11-04T09:38:20.352Z,33376.00
2018-11-04T09:39:20.392Z,32320.00
2018-11-04T09:40:20.425Z,31456.00
2018-11-04T09:41:20.467Z,31968.00
2018-11-04T09:42:20.504Z,31040.00
2018-11-04T09:43:20.542Z,32160.00
2018-11-04T09:44:20.586Z,32896.00
2018-11-04T09:45:20.620Z,31392.00
2018-11-04T09:46:20.660Z,30560.00
2018-11-04T09:47:20.698Z,32736.00
2018-11-04T09:48:20.738Z,32128.00
2018-11-04T09:49:20.776Z,31808.00
2018-11-04T09:50:20.816Z,32064.00
2018-11-04T09:51:20.857Z,32128.00
2018-11-04T09:52:20.896Z,31776.00
2018-11-04T09:53:20.933Z,31840.00
2018-11-04T09:54:20.973Z,30976.00
2018-11-04T09:55:21.014Z,31136.00
2018-11-04T09:56:21.083Z,31232.00
2018-11-04T09:57:21.094Z,32384.00
2018-11-04T09:58:21.132Z,31616.00
2018-11-04T09:59:21.173Z,30496.00
2018-11-04T10:00:21.208Z,31712.00
2018-11-04T10:01:21.404Z,31712.00
2018-11-04T10:02:21.284Z,30464.00
2018-11-04T10:03:21.324Z,30976.00
2018-11-04T10:04:21.369Z,31328.00
2018-11-04T10:05:21.401Z,30336.00
2018-11-04T10:06:21.440Z,32192.00
2018-11-04T10:07:21.479Z,33600.00
2018-11-04T10:08:21.516Z,34176.00
2018-11-04T10:09:21.556Z,33312.00
2018-11-04T10:10:21.596Z,30944.00
2018-11-04T10:11:21.637Z,30880.00
2018-11-04T10:12:21.670Z,32096.00
2018-11-04T10:13:21.728Z,33024.00
2018-11-04T10:14:21.749Z,32800.00
2018-11-04T10:15:21.787Z,31296.00
2018-11-04T10:16:21.899Z,31520.00
2018-11-04T10:17:21.866Z,31296.00
2018-11-04T10:18:21.903Z,31104.00
2018-11-04T10:19:22.268Z,31680.00
2018-11-04T10:20:22.039Z,30144.00
2018-11-04T10:21:22.019Z,29792.00
2018-11-04T10:22:22.057Z,30336.00
2018-11-04T10:23:22.093Z,31008.00
2018-11-04T10:24:22.134Z,31968.00
2018-11-04T10:25:22.174Z,32416.00
2018-11-04T10:26:22.212Z,33344.00
2018-11-04T10:27:22.248Z,33568.00
2018-11-04T10:28:22.288Z,33280.00
2018-11-04T10:29:22.327Z,33472.00
2018-11-04T10:30:22.459Z,33824.00
2018-11-04T10:31:22.401Z,34048.00
2018-11-04T10:32:22.439Z,35008.00
2018-11-04T10:33:22.478Z,34176.00
2018-11-04T10:34:22.519Z,35040.00
2018-11-04T10:35:22.555Z,34656.00
2018-11-04T10:36:22.729Z,33664.00
2018-11-04T10:37:22.712Z,33120.00
2018-11-04T10:38:22.668Z,33408.00
2018-11-04T10:39:22.706Z,32704.00
2018-11-04T10:40:22.746Z,30496.00
2018-11-04T10:41:22.781Z,29920.00
2018-11-04T10:42:22.894Z,30240.00
2018-11-04T10:43:22.855Z,28256.00
2018-11-04T10:44:22.896Z,27360.00
2018-11-04T10:45:22.934Z,24608.00
2018-11-04T10:46:22.971Z,18624.00
2018-11-04T10:47:23.009Z,19360.00
2018-11-04T10:48:23.047Z,16128.00
2018-11-04T10:49:23.132Z,14276.00
2018-11-04T10:50:23.122Z,13520.00
2018-11-04T10:51:23.160Z,12860.00
2018-11-04T10:52:23.199Z,12356.00
2018-11-04T10:53:23.235Z,12160.00
2018-11-04T10:54:23.276Z,11724.00
2018-11-04T10:55:23.309Z,11132.00
2018-11-04T10:56:23.348Z,11144.00
2018-11-04T10:57:23.383Z,11088.00
2018-11-04T10:58:23.423Z,11540.00
2018-11-04T10:59:23.467Z,11236.00
2018-11-04T11:00:23.496Z,11596.00
2018-11-04T11:01:23.537Z,12424.00
2018-11-04T11:02:23.575Z,12808.00
2018-11-04T11:03:23.608Z,12288.00
2018-11-04T11:04:23.704Z,11208.00
2018-11-04T11:05:23.686Z,10188.00
2018-11-04T11:06:23.721Z,9892.00
2018-11-04T11:07:23.757Z,9204.00
2018-11-04T11:08:23.795Z,9340.00
2018-11-04T11:09:23.834Z,9208.00
2018-11-04T11:10:23.878Z,9556.00
2018-11-04T11:11:23.906Z,9240.00
2018-11-04T11:12:23.946Z,9088.00
2018-11-04T11:13:23.985Z,8996.00
2018-11-04T11:14:24.018Z,8960.00
2018-11-04T11:15:24.060Z,8908.00
2018-11-04T11:16:24.092Z,8912.00
2018-11-04T11:17:24.149Z,8832.00
2018-11-04T11:18:24.169Z,9132.00
2018-11-04T11:19:24.204Z,9012.00
2018-11-04T11:20:24.242Z,9252.00
2018-11-04T11:21:24.277Z,9752.00
2018-11-04T11:22:24.348Z,9052.00
2018-11-04T11:23:24.352Z,8684.00
2018-11-04T11:24:24.391Z,8972.00
2018-11-04T11:25:24.434Z,9184.00
2018-11-04T11:26:24.467Z,8724.00
2018-11-04T11:27:24.502Z,8816.00
2018-11-04T11:28:24.539Z,6652.00
2018-11-04T11:29:24.578Z,5136.00
2018-11-04T11:30:24.618Z,4968.00
2018-11-04T11:31:24.652Z,5316.00
2018-11-04T11:32:24.691Z,4916.00
2018-11-04T11:33:24.728Z,5080.00
2018-11-04T11:34:24.765Z,5396.00
2018-11-04T11:35:24.798Z,5720.00
2018-11-04T11:36:24.835Z,5320.00
2018-11-04T11:37:24.909Z,5160.00
2018-11-04T11:38:24.906Z,4940.00
2018-11-04T11:39:24.942Z,4884.00
2018-11-04T11:40:24.977Z,4792.00
2018-11-04T11:41:25.012Z,4940.00
2018-11-04T11:42:25.047Z,4868.00
2018-11-04T11:43:25.082Z,4776.00
2018-11-04T11:44:25.118Z,4804.00
2018-11-04T11:45:25.151Z,4972.00
2018-11-04T11:46:25.184Z,5004.00
2018-11-04T11:47:25.220Z,4804.00
2018-11-04T11:48:25.251Z,4980.00
2018-11-04T11:49:25.287Z,4740.00
2018-11-04T11:50:25.318Z,4752.00
2018-11-04T11:51:25.350Z,4856.00
2018-11-04T11:52:25.407Z,4784.00
2018-11-04T11:53:25.416Z,4772.00
2018-11-04T11:54:25.448Z,4748.00
2018-11-04T11:55:25.482Z,4716.00
2018-11-04T11:56:25.520Z,4704.00
2018-11-04T11:57:25.549Z,4776.00
2018-11-04T11:58:25.577Z,4788.00
2018-11-04T11:59:25.697Z,4840.00
2018-11-04T12:00:25.640Z,4996.00
2018-11-04T12:01:25.673Z,4824.00
2018-11-04T12:02:25.808Z,4648.00
2018-11-04T12:03:25.735Z,4572.00
2018-11-04T12:04:25.774Z,4600.00
2018-11-04T12:05:25.799Z,4572.00
2018-11-04T12:06:25.832Z,4656.00
2018-11-04T12:07:25.862Z,4600.00
2018-11-04T12:08:25.894Z,4604.00
2018-11-04T12:09:25.924Z,4524.00
2018-11-04T12:10:25.958Z,4480.00
2018-11-04T12:11:25.995Z,4464.00
2018-11-04T12:12:26.021Z,4452.00
2018-11-04T12:13:26.059Z,4464.00
2018-11-04T12:14:26.087Z,4436.00
2018-11-04T12:15:26.111Z,4616.00
2018-11-04T12:16:26.144Z,4416.00
2018-11-04T12:17:26.175Z,4416.00
2018-11-04T12:18:26.206Z,4392.00
2018-11-04T12:19:26.235Z,4444.00
2018-11-04T12:20:26.267Z,4480.00
2018-11-04T12:21:26.297Z,4724.00
2018-11-04T12:22:26.329Z,4396.00
2018-11-04T12:23:26.398Z,4348.00
2018-11-04T12:24:26.390Z,4316.00
2018-11-04T12:25:26.420Z,4328.00
2018-11-04T12:26:26.455Z,4444.00
2018-11-04T12:27:26.481Z,4492.00
2018-11-04T12:28:26.514Z,4284.00
2018-11-04T12:29:26.543Z,4464.00